Carson Sink, Nevada Weather observations

Data are for observation ending at time listed.
 Day   Time    Ave.   Ave.  Ave.  Vector   Max.   Stn.    Total    Solar   Ave.  
  of    of     Air    Rel.  Wind   Wind    Wind   Baro.  Precip.   Rad.    Soil  
Year   Day     Temp.  Hum.  Speed  Dir.    Gust   Pres.                    Temp. 
2015   (PST)    F      %     mph   deg.    mph     mb.     in.     W/m2     F   
------------------------------------------------------------------------------
  88    4:30   36.6    29    9.5    22     11.7   888.8    0.00       0     55.1
  88    4:40   36.6    29   10.1    21     11.9   888.8    0.00       0     54.9
  88    4:50   36.4    29    9.5    24     11.4   889.0    0.00       0     54.8
  88    5:00   36.2    30   10.0    21     11.3   889.0    0.00       0     54.6
  88    5:10   35.3    31    9.6    13     11.3   889.0    0.00       0     54.5
  88    5:20   34.9    30   11.1     7     12.9   889.0    0.00       0     54.3
  88    5:30   34.8    31   10.4    12     12.5   889.1    0.00       0     54.2
  88    5:40   35.4    30   10.7    19     13.5   889.3    0.00       2     54.0
  88    5:50   35.2    30    6.6    85     10.8   889.5    0.00       6     53.9
  88    6:00   35.2    31    7.1   106      9.8   889.6    0.00      18     53.8
  88    6:10   34.6    32    6.4    92      7.7   889.8    0.00      55     53.6
  88    6:20   34.9    32    6.9    66      8.1   889.9    0.00      90     53.5
  88    6:30   35.3    32    6.4    74      7.8   890.1    0.00     122     53.3
  88    6:40   36.8    30    4.0    55      5.8   890.2    0.00     157     53.2
  88    6:50   37.5    30    3.4    31      4.5   890.1    0.00     192     53.0
  88    7:00   38.0    29    4.1    22      4.7   890.1    0.00     226     52.9
  88    7:10   39.3    28    3.0    81      4.1   890.0    0.00     257     52.8
  88    7:20   41.3    25    2.6    72      4.7   890.0    0.00     292     52.7
  88    7:30   41.7    25    4.0    88      5.7   890.0    0.00     325     52.7
  88    7:40   43.2    24    4.6   114      6.7   890.0    0.00     358     52.6
  88    7:50   44.3    22    4.7   177      6.6   890.0    0.00     391     52.6
  88    8:00   44.6    22    3.1   209      4.6   890.2    0.00     424     52.6
  88    8:10   45.7    22    3.0   188      6.7   890.3    0.00     456     52.6
  88    8:20   45.8    21    3.6   156      6.9   890.3    0.00     486     52.7
  88    8:30   46.9    20    3.8   129      5.5   890.3    0.00     517     52.7
  88    8:40   47.8    19    6.0   135      8.1   890.2    0.00     546     52.9
  88    8:50   48.7    18    4.3   134      6.6   890.3    0.00     574     53.0
  88    9:00   49.4    18    6.2   142      8.9   890.2    0.00     601     53.2
  88    9:10   50.4    17    4.8   119      6.7   890.2    0.00     628     53.4
  88    9:20   51.5    16    3.7   121      6.4   890.2    0.00     653     53.6
  88    9:30   52.8    16    3.8   127      6.0   890.1    0.00     677     53.9
  88    9:40   53.9    15    4.4   136      7.6   890.1    0.00     699     54.1
  88    9:50   54.9    15    4.1   138      7.0   889.9    0.00     721     54.4
  88   10:00   56.6    14    3.0   151      5.6   889.9    0.00     740     54.7
  88   10:10   58.2    13    2.5   163      5.8   889.7    0.00     759     55.1
  88   10:20   58.9    13    2.2   109      4.2   889.6    0.00     777     55.5
  88   10:30   59.3    13    2.6   162      6.5   889.4    0.00     790     55.8
  88   10:40   60.3    12    2.8   131      5.4   889.4    0.00     805     56.2
  88   10:50   60.9    12    2.3   171      5.0   889.3    0.00     816     56.6
  88   11:00   60.8    12    2.3   133      5.3   889.3    0.00     826     57.1
  88   11:10   62.7    12    1.6    36      5.9   889.1    0.00     836     57.6
  88   11:20   62.7    11    2.4   359      5.8   888.9    0.00     839     58.0
  88   11:30   62.8    11    2.3    53      4.4   888.8    0.00     844     58.6
  88   11:40   63.0    11    3.3   312      6.5   888.8    0.00     847     59.1
  88   11:50   64.4    11    1.3   195      3.8   888.6    0.00     848     59.5
  88   12:00   64.9    11    2.4   309      5.8   888.4    0.00     849     60.0
  88   12:10   65.4    11    1.8   252      4.4   888.3    0.00     848     60.6
  88   12:20   65.6    10    2.4   360      5.6   888.2    0.00     843     61.1
  88   12:30   66.3    10    3.0    97      6.6   888.0    0.00     839     61.6
  88   12:40   66.6    10    3.2   146      6.3   887.8    0.00     830     62.1
  88   12:50   66.5    10    3.5   127      6.9   887.5    0.00     822     62.6
  88   13:00   67.8    10    3.2   167      6.0   887.4    0.00     810     63.1
  88   13:10   67.8    10    4.0   128      6.9   887.2    0.00     799     63.6
  88   13:20   67.9    10    2.3    67      6.1   887.0    0.00     787     64.1
  88   13:30   68.8     9    2.7    40      7.6   886.9    0.00     771     64.5
  88   13:40   68.9     9    4.7    98     10.0   886.7    0.00     756     65.0
  88   13:50   69.9     9    2.6   153      5.3   886.5    0.00     737     65.5
  88   14:00   70.3     9    4.6    60      9.7   886.3    0.00     718     65.9
  88   14:10   71.1     9    1.7   114      7.7   886.2    0.00     698     66.3
  88   14:20   70.7     8    5.8    71      9.6   886.0    0.00     676     66.7
  88   14:30   70.4     9    6.2    52      9.9   885.8    0.00     651     67.1
  88   14:40   70.8     8    6.3    45     10.7   885.7    0.00     626     67.5
  88   14:50   71.2     8    4.6    64      8.1   885.5    0.00     600     67.8
  88   15:00   71.5     8    6.7    45     10.8   885.3    0.00     573     68.1
  88   15:10   71.8     8    5.8    23      9.8   885.2    0.00     544     68.3
  88   15:20   72.0     8    4.9    40     10.5   885.1    0.00     516     68.5
  88   15:30   72.0     8    4.0    39      9.2   885.0    0.00     487     68.5
  88   15:40   72.8     8    4.1     5      6.9   884.9    0.00     457     68.6
  88   15:50   72.7     8    3.9    15      9.5   884.8    0.00     426     68.6
  88   16:00   73.2     8    2.9   341      6.9   884.8    0.00     395     68.6
  88   16:10   73.3     8    4.7    60      8.1   884.7    0.00     363     68.6
  88   16:20   73.2     7    2.9    50      6.2   884.7    0.00     331     68.6
  88   16:30   73.7     7    3.1    61      7.3   884.6    0.00     300     68.6
  88   16:40   73.2     8    4.6    39      8.2   884.5    0.00     268     68.6
  88   16:50   73.3     8    3.1    22      5.3   884.5    0.00     237     68.7
  88   17:00   73.8     8    1.2    78      4.9   884.5    0.00     206     68.7
  88   17:10   74.8     7    1.0     1      2.4   884.5    0.00     177     68.7
  88   17:20   73.7     8    2.3    34      4.2   884.4    0.00     148     68.8
  88   17:30   73.5     8    1.7     4      4.2   884.4    0.00     113     68.8
  88   17:40   73.3     8    1.4     2      2.7   884.4    0.00      76     68.8
  88   17:50   73.1     8    1.1   351      2.6   884.5    0.00      46     68.7
  88   18:00   73.2     8    0.5   331      1.7   884.5    0.00      23     68.7
  88   18:10   71.9     9    2.6   309      3.1   884.5    0.00      11     68.6
  88   18:20   70.0     9    3.5   301      5.1   884.5    0.00       4     68.5
  88   18:30   68.1    10    5.1   297      6.5   884.5    0.00       1     68.4
  88   18:40   65.9    10    6.6   318      7.9   884.6    0.00       0     68.3
  88   18:50   64.1    11    7.0   327      7.7   884.7    0.00       0     68.1
  88   19:00   61.9    13    5.8   337      7.0   884.8    0.00       0     67.9
  88   19:10   61.4    13    6.6   343      7.2   884.9    0.00       0     67.7
  88   19:20   60.2    14    6.1     6      7.2   885.1    0.00       0     67.5
  88   19:30   60.0    14    5.6    10      6.7   885.2    0.00       0     67.3
  88   19:40   59.5    13    5.1    30      6.1   885.3    0.00       0     67.0
  88   19:50   57.5    14    5.3    23      9.1   885.5    0.00       0     66.8
  88   20:00   58.5    13    7.6    43     11.1   885.6    0.00       0     66.6
  88   20:10   57.1    14    5.4    42      7.2   885.7    0.00       0     66.3
  88   20:20   54.0    16    4.5    49      6.1   885.7    0.00       0     66.1
  88   20:30   52.9    17    4.0     4      5.4   885.8    0.00       0     65.8
  88   20:40   54.3    16    4.7    27      7.7   885.9    0.00       0     65.6
  88   20:50   54.5    15    4.2   358      6.5   886.0    0.00       0     65.3
  88   21:00   54.2    15    6.4   353      9.1   886.2    0.00       0     65.1
  88   21:10   54.0    15    6.0    14      7.2   886.2    0.00       0     64.8
  88   21:20   51.9    16    6.4    29      7.2   886.3    0.00       0     64.6
  88   21:30   50.6    17    7.1    24      8.3   886.3    0.00       0     64.3
  88   21:40   51.3    17    7.4    17      8.4   886.3    0.00       0     64.1
  88   21:50   51.2    17    7.2    26      8.1   886.3    0.00       0     63.8
  88   22:00   48.8    19    6.5    15      7.5   886.3    0.00       0     63.6
  88   22:10   47.4    20    6.2    18      6.8   886.3    0.00       0     63.4
  88   22:20   46.8    20    5.6    16      6.5   886.3    0.00       0     63.1
  88   22:30   47.2    20    6.2    21      7.4   886.2    0.00       0     62.9
  88   22:40   46.4    21    5.8    20      6.6   886.2    0.00       0     62.7
  88   22:50   46.0    21    5.4    32      6.6   886.2    0.00       0     62.5
  88   23:00   45.3    22    5.4    16      6.4   886.1    0.00       0     62.2
  88   23:10   46.0    21    6.4    14      7.8   886.1    0.00       0     62.0
  88   23:20   47.2    20    5.6    30      6.4   886.1    0.00       0     61.8
  88   23:30   46.9    20    4.9    16      5.8   886.1    0.00       0     61.6
  88   23:40   46.1    21    4.6    43      5.7   886.0    0.00       0     61.4
  88   23:50   45.8    22    5.1    31      6.6   886.0    0.00       0     61.2
  89    0:00   46.9    21    6.6    33      7.0   885.9    0.00       0     61.0
  89    0:10   46.3    21    6.7    15      7.8   885.9    0.00       0     60.8
  89    0:20   47.2    20    6.1    32      7.5   885.9    0.00       0     60.6
  89    0:30   45.6    22    4.2    58      4.9   885.9    0.00       0     60.4
  89    0:40   44.2    23    5.1    43      6.4   885.9    0.00       0     60.2
  89    0:50   43.3    23    6.2    37      8.1   885.9    0.00       0     60.0
  89    1:00   43.0    23    6.2    22      7.7   885.9    0.00       0     59.8
  89    1:10   43.0    24    6.0    24      6.9   885.8    0.00       0     59.6
  89    1:20   43.9    23    6.3    22      8.6   885.7    0.00       0     59.4
  89    1:30   44.0    23    5.7    20      6.9   885.6    0.00       0     59.2
  89    1:40   43.7    23    7.6    30      8.8   885.6    0.00       0     59.1
  89    1:50   43.7    23    7.2    18      8.6   885.6    0.00       0     58.9
  89    2:00   42.3    25    8.4   349      9.9   885.7    0.00       0     58.7
  89    2:10   43.7    24    7.7   342     10.2   885.7    0.00       0     58.5
  89    2:20   43.9    23    3.0   356      5.3   885.9    0.00       0     58.4
  89    2:30   42.3    25    2.7   111      5.0   886.0    0.00       0     58.2
  89    2:40   43.1    24    7.1    73      9.0   886.1    0.00       0     58.1
  89    2:50   43.1    24    8.7    57      9.3   886.1    0.00       0     57.9
  89    3:00   42.1    24    7.4    54      9.0   886.1    0.00       0     57.7
  89    3:10   39.9    26    5.9    60      7.2   886.1    0.00       0     57.5
  89    3:20   39.1    28    4.6   111      5.5   886.0    0.00       0     57.4
  89    3:30   38.7    28    4.3   194      5.6   886.1    0.00       0     57.2
  89    3:40   37.7    29    5.3   297      6.6   886.2    0.00       0     57.1
  89    3:50   37.4    28    5.5   324      6.6   886.2    0.00       0     56.9
  89    4:00   38.5    29    3.5   328      4.6   886.2    0.00       0     56.8
  89    4:10   41.2    26    1.3   329      1.9   886.1    0.00       0     56.6
  89    4:20   38.0    27    3.1    40      5.0   886.2    0.00       0     56.4

Return to Carson Sink graphs page.


Western Regional Climate Center,wrcc@dri.edu